Duff, Indiana
Current Conditions -  °F | °C
As of 7:35 AM on Thursday 23 Oct 2014 (Local Time) from KHNB Reporting Station
Clear Clear  
Wind Chill: 39°   Ceiling: Unl
Heat Index: 39°   Visibility: 5mi
Dew Point: 36°   Wind: 3mph
Humidity: 87%   Direction: 130°SE
Pressure: 30.26"   Gusts: NA
Location:  38.3038°N, 86.9615°W
Report Text: KHNB 231235Z AUTO 13003KT 5SM CLR 04/02 A3026 RMK AO1
Loading
Personal Weather Stations






























Interactive Weather Map
Tropical Storm Tracking
New forecast layout! Learn more

10-Day Weather Forecast

Advertisements
Track Severe Weather on mobile